Time;durP1;ratioP1;P1;durP2;ratioP2;P2;SDS_P1;SDS_P2;PMS_P1;PMS_P2;Temp;Humidity;BMP_temperature;BMP_pressure;BME280_temperature;BME280_humidity;BME280_pressure;Samples;Min_cycle;Max_cycle;Signal;HPM_P1;HPM_P2
2021/03/26 00:00:20;;;;;;;61.80;38.00;;;9.30;99.90;;;;;;5065030;28;20810;-80
2021/03/26 00:02:46;;;;;;;68.27;36.87;;;9.30;99.90;;;;;;5070394;28;20437;-78
2021/03/26 00:05:17;;;;;;;65.03;36.90;;;9.40;99.90;;;;;;5071290;28;20449;-80
2021/03/26 00:07:43;;;;;;;70.73;38.37;;;9.40;99.90;;;;;;5066283;28;20461;-80
2021/03/26 00:10:12;;;;;;;65.23;37.80;;;9.30;99.90;;;;;;5065318;28;20495;-81
2021/03/26 00:12:38;;;;;;;64.30;37.30;;;9.30;99.90;;;;;;5068120;28;20476;-81
2021/03/26 00:15:08;;;;;;;62.87;38.43;;;9.30;99.90;;;;;;5064522;28;20449;-80
2021/03/26 00:17:34;;;;;;;60.13;36.70;;;9.20;99.90;;;;;;5062489;28;20465;-81
2021/03/26 00:20:00;;;;;;;62.80;34.37;;;9.10;99.90;;;;;;5062037;28;20492;-80
2021/03/26 00:22:27;;;;;;;62.63;39.23;;;9.00;99.90;;;;;;5062505;28;20445;-81
2021/03/26 00:24:53;;;;;;;71.23;38.53;;;9.00;99.90;;;;;;5061903;28;20441;-79
2021/03/26 00:27:20;;;;;;;67.57;38.90;;;8.90;99.90;;;;;;5061395;28;20465;-80
2021/03/26 00:29:46;;;;;;;63.00;37.83;;;8.80;99.90;;;;;;5060450;28;20963;-80
2021/03/26 00:32:13;;;;;;;59.47;38.07;;;8.80;99.90;;;;;;5060133;28;20445;-79
2021/03/26 00:34:39;;;;;;;66.17;37.70;;;8.70;99.90;;;;;;5060143;28;20433;-81
2021/03/26 00:37:05;;;;;;;69.40;38.70;;;8.70;99.90;;;;;;5060116;28;20450;-79
2021/03/26 00:39:32;;;;;;;61.20;37.73;;;8.60;99.90;;;;;;5073632;28;20528;-77
2021/03/26 00:41:58;;;;;;;62.58;39.15;;;8.60;99.90;;;;;;5075590;28;20416;-77
2021/03/26 00:44:24;;;;;;;67.15;36.92;;;8.60;99.90;;;;;;5076151;28;20220;-78
2021/03/26 00:46:50;;;;;;;67.70;37.35;;;8.50;99.90;;;;;;5075819;28;20199;-78
2021/03/26 00:49:17;;;;;;;69.57;40.00;;;8.40;99.90;;;;;;5066653;28;20214;-78
2021/03/26 00:51:43;;;;;;;67.27;39.10;;;8.40;99.90;;;;;;5060127;28;20442;-80
2021/03/26 00:54:11;;;;;;;64.77;39.57;;;8.40;99.90;;;;;;5059282;28;20441;-79
2021/03/26 00:56:37;;;;;;;69.77;38.90;;;8.40;99.90;;;;;;5061035;28;20492;-79
2021/03/26 00:59:04;;;;;;;65.20;37.70;;;8.40;99.90;;;;;;5059620;28;20459;-79
2021/03/26 01:01:30;;;;;;;68.07;39.20;;;8.30;99.90;;;;;;5058618;28;20446;-81
2021/03/26 01:03:56;;;;;;;67.60;40.60;;;8.30;99.90;;;;;;5059127;28;20237;-80
2021/03/26 01:06:23;;;;;;;67.10;38.37;;;8.20;99.90;;;;;;5060535;28;20255;-78
2021/03/26 01:08:49;;;;;;;64.27;37.40;;;8.20;99.90;;;;;;5074300;28;20440;-80
2021/03/26 01:11:18;;;;;;;75.10;39.83;;;8.20;99.90;;;;;;5070250;28;20464;-78
2021/03/26 01:13:45;;;;;;;68.83;39.90;;;8.30;99.90;;;;;;5061301;28;20441;-79
2021/03/26 01:16:12;;;;;;;74.47;38.47;;;8.20;99.90;;;;;;5059129;28;20461;-80
2021/03/26 01:18:41;;;;;;;74.00;42.40;;;8.30;99.90;;;;;;5059521;28;20493;-80
2021/03/26 01:21:10;;;;;;;71.53;42.40;;;8.30;99.90;;;;;;5058692;28;20911;-80
2021/03/26 01:23:38;;;;;;;68.13;39.42;;;8.40;99.90;;;;;;5066423;28;20426;-78
2021/03/26 01:26:04;;;;;;;64.87;39.43;;;8.30;99.90;;;;;;5073831;28;20206;-78
2021/03/26 01:28:31;;;;;;;72.23;40.97;;;8.20;99.90;;;;;;5074947;28;20466;-79
2021/03/26 01:30:59;;;;;;;71.07;39.93;;;8.20;99.90;;;;;;5075882;28;20430;-78
2021/03/26 01:33:25;;;;;;;72.63;40.25;;;8.20;99.90;;;;;;5072836;28;20412;-79
2021/03/26 01:35:52;;;;;;;69.67;41.57;;;8.20;99.90;;;;;;5068875;28;20203;-79
2021/03/26 01:38:19;;;;;;;70.18;39.13;;;8.20;99.90;;;;;;5091920;23;20519;-83
2021/03/26 01:40:49;;;;;;;69.05;40.65;;;8.20;99.90;;;;;;5071328;28;20218;-84
2021/03/26 01:43:19;;;;;;;63.87;39.60;;;8.10;99.90;;;;;;5070277;28;20195;-83
2021/03/26 01:45:47;;;;;;;69.30;38.33;;;8.20;99.90;;;;;;5068054;28;20433;-84
2021/03/26 01:48:23;;;;;;;71.10;39.80;;;8.20;99.90;;;;;;5066890;28;20970;-83
2021/03/26 01:50:49;;;;;;;67.13;38.07;;;8.30;99.90;;;;;;5067814;28;20444;-83
2021/03/26 01:53:15;;;;;;;65.00;37.57;;;8.20;99.90;;;;;;5068362;28;20882;-83
2021/03/26 01:55:44;;;;;;;63.03;38.37;;;8.20;99.90;;;;;;5070297;28;20434;-83
2021/03/26 01:58:14;;;;;;;61.93;40.70;;;8.30;99.90;;;;;;5072411;28;20470;-84
2021/03/26 02:00:42;;;;;;;64.00;41.00;;;8.30;99.90;;;;;;5072294;28;20440;-83
2021/03/26 02:03:15;;;;;;;73.57;40.22;;;8.30;99.90;;;;;;5072202;28;20445;-84
2021/03/26 02:05:42;;;;;;;61.03;38.03;;;8.30;99.90;;;;;;5073926;28;20221;-84
2021/03/26 02:08:09;;;;;;;64.97;40.60;;;8.30;99.90;;;;;;5073885;28;20465;-84
2021/03/26 02:10:36;;;;;;;66.25;40.13;;;8.40;99.90;;;;;;5069673;28;20495;-84
2021/03/26 02:13:05;;;;;;;65.33;39.23;;;8.40;99.90;;;;;;5071509;28;20199;-84
2021/03/26 02:15:39;;;;;;;65.37;39.43;;;8.40;99.90;;;;;;5074377;28;20824;-84
2021/03/26 02:18:06;;;;;;;75.43;39.00;;;8.30;99.90;;;;;;5066029;28;20472;-84
2021/03/26 02:20:42;;;;;;;67.00;38.13;;;8.40;99.90;;;;;;5064919;28;20492;-84
2021/03/26 02:23:11;;;;;;;65.07;38.60;;;8.40;99.90;;;;;;5063977;28;20450;-83
2021/03/26 02:25:37;;;;;;;69.03;39.40;;;8.40;99.90;;;;;;5063146;28;20503;-83
2021/03/26 02:28:05;;;;;;;60.70;39.90;;;8.50;99.90;;;;;;5063081;28;20470;-84
2021/03/26 02:30:35;;;;;;;63.93;37.00;;;8.50;99.90;;;;;;5062415;28;20441;-84
2021/03/26 02:33:03;;;;;;;69.33;40.10;;;8.50;99.90;;;;;;5062857;28;20445;-84
2021/03/26 02:35:31;;;;;;;59.27;39.97;;;8.50;99.90;;;;;;5062270;28;20495;-84
2021/03/26 02:38:02;;;;;;;73.93;41.43;;;8.50;99.90;;;;;;5061893;28;20477;-83
2021/03/26 02:40:36;;;;;;;66.87;38.80;;;8.50;99.90;;;;;;5062691;28;20473;-83
2021/03/26 02:43:16;;;;;;;73.55;40.15;;;8.50;99.90;;;;;;5061959;28;20434;-83
2021/03/26 02:45:47;;;;;;;65.00;40.08;;;8.50;99.90;;;;;;5062530;28;20525;-84
2021/03/26 02:48:17;;;;;;;60.63;37.83;;;8.50;99.90;;;;;;5061946;28;20227;-84
2021/03/26 02:50:52;;;;;;;69.97;38.00;;;8.50;99.90;;;;;;5061062;28;20448;-83
2021/03/26 02:53:25;;;;;;;75.93;40.50;;;8.50;99.90;;;;;;5059130;28;20469;-83
2021/03/26 02:55:59;;;;;;;70.70;39.10;;;8.40;99.90;;;;;;5072050;28;20385;-83
2021/03/26 02:58:28;;;;;;;77.50;42.80;;;8.30;99.90;;;;;;5073261;28;20471;-84
2021/03/26 03:00:58;;;;;;;72.33;38.90;;;8.20;99.90;;;;;;5073112;28;20206;-84
2021/03/26 03:03:26;;;;;;;80.70;40.58;;;8.20;99.90;;;;;;5073844;28;20416;-84
2021/03/26 03:05:58;;;;;;;66.00;40.38;;;8.10;99.90;;;;;;5070811;28;20306;-84
2021/03/26 03:08:28;;;;;;;61.30;38.65;;;8.00;99.90;;;;;;5062907;28;20219;-83
2021/03/26 03:11:01;;;;;;;75.13;40.05;;;8.00;99.90;;;;;;5062307;28;20187;-84
2021/03/26 03:13:36;;;;;;;71.78;41.42;;;7.90;99.90;;;;;;5062376;28;20187;-84
2021/03/26 03:16:07;;;;;;;84.82;39.05;;;7.90;99.90;;;;;;5062484;28;20202;-83
2021/03/26 03:18:37;;;;;;;74.10;40.60;;;7.90;99.90;;;;;;5062056;28;20226;-84
2021/03/26 03:21:10;;;;;;;65.60;40.80;;;8.00;99.90;;;;;;5066282;28;20207;-83
2021/03/26 03:23:40;;;;;;;66.40;40.47;;;8.10;99.90;;;;;;5072653;28;20453;-83
2021/03/26 03:26:17;;;;;;;64.38;39.78;;;8.20;99.90;;;;;;5073005;28;20207;-83
2021/03/26 03:28:51;;;;;;;78.57;45.85;;;8.30;99.90;;;;;;5070427;28;20218;-83
2021/03/26 03:31:25;;;;;;;75.67;41.30;;;8.30;99.90;;;;;;5062003;28;20187;-84
2021/03/26 03:34:00;;;;;;;76.90;43.10;;;8.30;99.90;;;;;;5062269;28;20987;-83
2021/03/26 03:36:34;;;;;;;79.87;39.77;;;8.30;99.90;;;;;;5064520;28;20414;-83
2021/03/26 03:39:08;;;;;;;58.47;38.37;;;8.30;99.90;;;;;;5063189;28;20496;-84
2021/03/26 03:41:40;;;;;;;65.97;39.97;;;8.30;99.90;;;;;;5061657;28;20536;-83
2021/03/26 03:44:13;;;;;;;72.40;42.97;;;8.30;99.90;;;;;;5061940;28;20433;-84
2021/03/26 03:46:47;;;;;;;77.57;41.67;;;8.30;99.90;;;;;;5061708;28;20821;-84
2021/03/26 03:49:20;;;;;;;72.90;43.10;;;8.30;99.90;;;;;;5062172;28;20514;-84
2021/03/26 03:51:50;;;;;;;69.87;40.70;;;8.40;99.90;;;;;;5061137;28;20430;-84
2021/03/26 03:54:22;;;;;;;67.67;38.50;;;8.50;99.90;;;;;;5062354;28;20490;-83
2021/03/26 03:56:55;;;;;;;64.10;36.03;;;8.60;99.90;;;;;;5061597;28;20397;-84
2021/03/26 03:59:25;;;;;;;66.23;40.43;;;8.60;99.90;;;;;;5062953;28;20508;-83
2021/03/26 04:01:58;;;;;;;68.87;42.10;;;8.60;99.90;;;;;;5061073;28;20420;-84
2021/03/26 04:04:31;;;;;;;69.47;41.80;;;8.60;99.90;;;;;;5060392;28;20422;-83
2021/03/26 04:07:03;;;;;;;67.73;40.03;;;8.60;99.90;;;;;;5061943;28;20438;-83
2021/03/26 04:09:32;;;;;;;67.40;41.40;;;8.60;99.90;;;;;;5062672;28;20457;-83
2021/03/26 04:12:03;;;;;;;76.63;42.53;;;8.60;99.90;;;;;;5065073;28;20445;-83
2021/03/26 04:14:33;;;;;;;68.47;42.23;;;8.60;99.90;;;;;;5073197;28;20432;-83
2021/03/26 04:17:04;;;;;;;69.87;41.53;;;8.60;99.90;;;;;;5071253;28;20499;-84
2021/03/26 04:19:34;;;;;;;77.83;43.30;;;8.60;99.90;;;;;;5067587;28;20489;-85
2021/03/26 04:22:13;;;;;;;67.67;39.80;;;8.60;99.90;;;;;;5066192;28;20434;-84
2021/03/26 04:24:43;;;;;;;70.43;40.70;;;8.50;99.90;;;;;;5067989;28;20408;-84
2021/03/26 04:27:13;;;;;;;50.43;35.97;;;8.70;99.90;;;;;;5064238;28;20430;-83
2021/03/26 04:29:47;;;;;;;71.90;40.70;;;8.50;99.90;;;;;;5070428;28;20426;-84
2021/03/26 04:32:16;;;;;;;66.40;41.00;;;8.60;99.90;;;;;;5070238;28;20430;-84
2021/03/26 04:34:43;;;;;;;69.17;40.37;;;8.60;99.90;;;;;;5070204;28;20445;-84
2021/03/26 04:37:26;;;;;;;64.33;39.20;;;8.50;99.90;;;;;;5071681;28;20450;-84
2021/03/26 04:39:56;;;;;;;66.50;40.30;;;8.50;99.90;;;;;;5071835;28;20478;-84
2021/03/26 04:42:29;;;;;;;72.40;41.10;;;8.60;99.90;;;;;;5068417;28;20445;-84
2021/03/26 04:45:02;;;;;;;70.30;42.47;;;8.60;99.90;;;;;;5065839;28;20430;-84
2021/03/26 04:47:32;;;;;;;73.72;42.83;;;8.50;99.90;;;;;;5063830;28;20443;-83
2021/03/26 04:50:01;;;;;;;66.97;42.67;;;8.60;99.90;;;;;;5063417;28;20439;-84
2021/03/26 04:52:34;;;;;;;67.90;41.33;;;8.60;99.90;;;;;;5065029;28;20203;-85
2021/03/26 04:55:09;;;;;;;68.07;43.20;;;8.60;99.90;;;;;;5069364;28;20448;-84
2021/03/26 04:57:40;;;;;;;63.77;40.17;;;8.80;99.90;;;;;;5073349;28;20875;-83
2021/03/26 05:00:11;;;;;;;67.77;39.70;;;8.70;99.90;;;;;;5078086;28;20465;-83
2021/03/26 05:02:41;;;;;;;65.60;41.10;;;8.70;99.90;;;;;;5077934;28;20464;-84
2021/03/26 05:05:10;;;;;;;76.17;41.10;;;8.80;99.90;;;;;;5068602;28;20435;-84
2021/03/26 05:07:43;;;;;;;71.80;40.23;;;8.80;99.90;;;;;;5072954;28;20462;-84
2021/03/26 05:10:15;;;;;;;68.13;41.90;;;8.90;99.90;;;;;;5071478;28;20455;-84
2021/03/26 05:12:46;;;;;;;69.73;41.57;;;8.90;99.90;;;;;;5073471;28;20765;-83
2021/03/26 05:15:20;;;;;;;70.50;40.93;;;8.90;99.90;;;;;;5072081;28;20426;-84
2021/03/26 05:17:51;;;;;;;75.28;44.58;;;8.90;99.90;;;;;;5070868;28;20473;-84
2021/03/26 05:20:24;;;;;;;77.47;44.95;;;8.90;99.90;;;;;;5069244;28;20535;-84
2021/03/26 05:22:55;;;;;;;64.67;41.50;;;8.90;99.90;;;;;;5069778;28;20184;-84
2021/03/26 05:25:27;;;;;;;73.63;42.50;;;8.90;99.90;;;;;;5061022;28;20791;-84
2021/03/26 05:27:55;;;;;;;70.25;43.75;;;8.90;99.90;;;;;;5059788;28;20436;-84
2021/03/26 05:30:25;;;;;;;68.68;44.17;;;8.90;99.90;;;;;;5063045;28;20474;-84
2021/03/26 05:32:54;;;;;;;65.30;42.17;;;9.00;99.90;;;;;;5075067;28;20206;-84
2021/03/26 05:35:24;;;;;;;69.60;42.13;;;9.00;99.90;;;;;;5070721;28;20456;-84
2021/03/26 05:37:57;;;;;;;73.83;42.77;;;9.30;99.90;;;;;;5064674;28;20458;-84
2021/03/26 05:40:51;;;;;;;66.27;39.43;;;9.20;99.90;;;;;;5068584;28;20436;-84
2021/03/26 05:43:32;;;;;;;72.57;42.40;;;9.10;99.90;;;;;;5074330;28;20424;-84
2021/03/26 05:46:11;;;;;;;73.53;42.10;;;9.00;99.90;;;;;;5064625;28;20440;-84
2021/03/26 05:48:47;;;;;;;84.37;43.70;;;8.90;99.90;;;;;;5068600;28;20473;-84
2021/03/26 05:51:37;;;;;;;80.27;44.67;;;8.80;99.90;;;;;;5076211;28;20441;-84
2021/03/26 05:54:16;;;;;;;80.97;42.90;;;8.80;99.90;;;;;;5062070;28;20434;-84
2021/03/26 05:56:57;;;;;;;82.90;46.63;;;8.80;99.90;;;;;;5061616;28;20488;-85
2021/03/26 05:59:33;;;;;;;85.40;47.40;;;8.70;99.90;;;;;;5060904;28;20493;-84
2021/03/26 06:02:32;;;;;;;82.25;46.72;;;8.50;99.90;;;;;;5061181;28;20412;-84
2021/03/26 06:05:24;;;;;;;90.43;48.87;;;8.20;99.90;;;;;;5060833;28;20195;-84
2021/03/26 06:08:20;;;;;;;93.93;53.67;;;8.20;99.90;;;;;;5062461;28;20444;-84
2021/03/26 06:11:10;;;;;;;95.90;52.60;;;8.10;99.90;;;;;;5063178;28;20420;-84
2021/03/26 06:14:08;;;;;;;95.45;49.92;;;8.00;99.90;;;;;;5058710;28;20919;-84
2021/03/26 06:16:47;;;;;;;97.82;52.13;;;8.10;99.90;;;;;;5054818;28;20207;-84
2021/03/26 06:19:58;;;;;;;91.30;50.58;;;8.20;99.90;;;;;;5060893;28;20257;-84
2021/03/26 06:22:45;;;;;;;98.93;53.47;;;8.20;99.90;;;;;;5062409;28;20180;-84
2021/03/26 06:25:39;;;;;;;94.27;51.93;;;8.30;99.90;;;;;;5062581;28;20187;-84
2021/03/26 06:28:39;;;;;;;96.53;52.30;;;8.10;99.90;;;;;;5063593;28;20976;-84
2021/03/26 06:31:57;;;;;;;96.60;51.10;;;8.20;99.90;;;;;;5063194;28;20444;-84
2021/03/26 06:34:44;;;;;;;94.13;52.90;;;8.30;99.90;;;;;;5062708;28;20437;-84
2021/03/26 06:37:33;;;;;;;99.25;53.17;;;8.30;99.90;;;;;;5060555;28;20653;-84
2021/03/26 06:40:37;;;;;;;96.43;55.55;;;8.40;99.90;;;;;;5060666;28;20245;-84
2021/03/26 06:43:20;;;;;;;92.35;50.88;;;8.60;99.90;;;;;;5031890;28;20629;-84
2021/03/26 06:46:02;;;;;;;87.85;51.85;;;8.80;99.90;;;;;;5061712;28;20191;-84
2021/03/26 06:48:43;;;;;;;86.53;50.43;;;8.70;99.90;;;;;;5061086;28;20222;-84
2021/03/26 06:51:48;;;;;;;82.93;45.42;;;8.50;99.90;;;;;;5061418;28;20426;-84
2021/03/26 06:54:47;;;;;;;79.50;47.97;;;8.70;99.90;;;;;;5055670;28;20229;-84
2021/03/26 06:57:52;;;;;;;75.30;46.30;;;8.60;99.90;;;;;;5013948;28;20199;-85
2021/03/26 07:00:49;;;;;;;73.23;46.00;;;8.60;99.90;;;;;;5070337;28;20485;-84
2021/03/26 07:03:45;;;;;;;83.00;44.30;;;8.40;99.90;;;;;;5073760;28;20451;-84
2021/03/26 07:06:45;;;;;;;76.10;45.70;;;8.20;99.90;;;;;;5069261;28;20441;-84
2021/03/26 07:09:32;;;;;;;83.30;46.50;;;8.50;99.90;;;;;;5069204;28;20461;-85
2021/03/26 07:12:14;;;;;;;83.77;45.33;;;8.50;99.90;;;;;;5072396;28;20430;-84
2021/03/26 07:15:00;;;;;;;89.43;50.23;;;8.60;99.90;;;;;;5073954;28;20449;-85
2021/03/26 07:17:47;;;;;;;84.77;46.70;;;8.70;99.90;;;;;;5070925;28;20465;-85
2021/03/26 07:21:00;;;;;;;76.97;45.37;;;8.90;99.90;;;;;;5065267;28;20465;-84
2021/03/26 07:24:09;;;;;;;76.03;44.13;;;9.20;99.90;;;;;;4958956;29;20446;-85
2021/03/26 07:26:49;;;;;;;80.30;46.40;;;9.30;99.90;;;;;;4964131;29;20429;-84
2021/03/26 07:29:29;;;;;;;80.83;47.80;;;9.60;99.90;;;;;;5051040;28;20461;-84
2021/03/26 07:32:22;;;;;;;80.37;43.97;;;9.70;99.90;;;;;;5062572;28;20430;-82
2021/03/26 07:35:02;;;;;;;76.87;47.27;;;10.00;99.90;;;;;;5067155;28;20548;-83
2021/03/26 07:40:37;;;;;;;69.73;44.63;;;10.00;99.90;;;;;;5050653;28;20485;-79
2021/03/26 07:43:26;;;;;;;68.40;43.53;;;9.90;99.90;;;;;;5051299;28;20434;-79
2021/03/26 07:46:26;;;;;;;79.67;43.20;;;10.30;99.90;;;;;;5052886;28;20427;-79
2021/03/26 07:49:16;;;;;;;81.53;47.37;;;10.40;99.90;;;;;;5033294;28;20462;-79
2021/03/26 07:51:49;;;;;;;70.97;44.70;;;10.60;99.90;;;;;;5050626;28;20998;-78
2021/03/26 07:54:34;;;;;;;64.60;42.23;;;10.50;99.90;;;;;;5049901;28;20490;-79
2021/03/26 07:57:17;;;;;;;72.10;42.93;;;10.60;99.90;;;;;;5037545;28;20438;-83
2021/03/26 08:00:02;;;;;;;83.90;48.50;;;10.60;99.90;;;;;;5038650;28;20486;-81
2021/03/26 08:02:39;;;;;;;81.87;46.47;;;11.20;99.90;;;;;;5038744;28;20430;-82
2021/03/26 08:05:15;;;;;;;71.40;44.70;;;11.20;99.90;;;;;;5042031;28;20955;-79
2021/03/26 08:08:22;;;;;;;79.07;46.90;;;10.70;99.90;;;;;;5040566;28;20533;-82
2021/03/26 08:10:51;;;;;;;78.13;43.83;;;10.90;99.90;;;;;;4962395;29;20446;-80
2021/03/26 08:13:33;;;;;;;70.40;44.90;;;11.10;99.90;;;;;;5022622;28;20529;-78
2021/03/26 08:16:27;;;;;;;70.50;45.40;;;11.20;99.90;;;;;;5041303;28;20430;-81
2021/03/26 08:19:05;;;;;;;74.70;43.37;;;11.10;99.90;;;;;;5047258;28;20473;-81
2021/03/26 08:21:36;;;;;;;76.13;45.70;;;11.20;99.90;;;;;;5048449;28;20419;-81
2021/03/26 08:24:28;;;;;;;69.77;42.03;;;11.10;99.90;;;;;;5048872;28;20427;-82
2021/03/26 08:27:09;;;;;;;75.63;44.23;;;11.30;99.90;;;;;;5047720;28;20439;-79
2021/03/26 08:29:42;;;;;;;75.60;43.27;;;11.50;99.90;;;;;;5045893;28;20458;-79
2021/03/26 08:32:55;;;;;;;64.17;41.30;;;11.60;99.90;;;;;;5042508;28;20905;-80
2021/03/26 08:35:42;;;;;;;77.77;44.90;;;11.60;99.90;;;;;;5044004;28;20563;-81
2021/03/26 08:38:27;;;;;;;68.70;42.83;;;11.70;99.90;;;;;;5040923;28;20474;-81
2021/03/26 08:40:57;;;;;;;70.90;43.77;;;11.80;99.90;;;;;;5040704;28;20592;-82
2021/03/26 08:43:24;;;;;;;74.73;44.57;;;11.80;99.90;;;;;;5041823;28;20427;-80
2021/03/26 08:46:00;;;;;;;73.83;44.03;;;12.00;99.90;;;;;;5040503;28;20473;-80
2021/03/26 08:48:37;;;;;;;77.30;41.93;;;12.10;99.90;;;;;;5041828;28;20484;-80
2021/03/26 08:51:24;;;;;;;74.93;43.10;;;12.50;99.90;;;;;;5042046;28;20465;-82
2021/03/26 08:54:00;;;;;;;68.10;42.33;;;12.60;99.90;;;;;;5041800;28;20449;-81
2021/03/26 08:56:41;;;;;;;67.23;42.23;;;12.80;99.90;;;;;;5044246;28;20457;-78
2021/03/26 08:59:25;;;;;;;62.40;41.23;;;12.70;99.90;;;;;;5051810;28;20482;-80
2021/03/26 09:02:25;;;;;;;69.70;40.60;;;12.90;99.90;;;;;;5049135;28;20435;-83
2021/03/26 09:05:15;;;;;;;65.53;42.20;;;12.60;99.90;;;;;;5048128;28;20445;-82
2021/03/26 09:07:55;;;;;;;73.47;40.03;;;12.50;99.90;;;;;;5051291;28;20898;-82
2021/03/26 09:10:51;;;;;;;59.80;37.77;;;12.70;99.90;;;;;;5051689;28;20427;-81
2021/03/26 09:13:30;;;;;;;72.97;40.20;;;12.60;99.90;;;;;;5008311;28;20417;-80
2021/03/26 09:16:04;;;;;;;62.60;38.43;;;12.80;99.90;;;;;;5052212;28;20442;-82
2021/03/26 09:18:51;;;;;;;58.93;36.40;;;12.80;99.90;;;;;;5045966;28;20466;-82
2021/03/26 09:21:33;;;;;;;58.60;38.20;;;12.80;99.90;;;;;;5041860;28;20470;-81
2021/03/26 09:24:18;;;;;;;58.23;34.53;;;13.10;99.90;;;;;;5040896;28;20439;-82
2021/03/26 09:27:02;;;;;;;54.37;36.10;;;13.00;99.90;;;;;;5046335;28;20434;-78
2021/03/26 09:29:37;;;;;;;70.67;37.33;;;13.10;99.90;;;;;;5046996;28;20465;-81
2021/03/26 09:32:13;;;;;;;59.13;37.33;;;12.90;99.90;;;;;;5045888;28;20409;-81
2021/03/26 09:34:44;;;;;;;68.97;38.23;;;13.00;99.90;;;;;;5045558;28;20430;-80
2021/03/26 09:37:19;;;;;;;53.70;32.83;;;13.10;99.90;;;;;;5045208;28;20465;-82
2021/03/26 09:39:49;;;;;;;44.37;28.27;;;13.20;99.90;;;;;;5043470;28;20521;-80
2021/03/26 09:42:33;;;;;;;45.40;27.97;;;13.50;99.90;;;;;;5051768;28;20434;-79
2021/03/26 09:45:07;;;;;;;45.83;28.03;;;13.50;99.90;;;;;;5050838;28;20465;-78
2021/03/26 09:47:40;;;;;;;43.00;30.60;;;13.40;99.90;;;;;;5050758;28;20434;-79
2021/03/26 09:50:24;;;;;;;50.90;33.23;;;13.60;99.90;;;;;;5051298;28;20990;-77
2021/03/26 09:52:51;;;;;;;59.13;32.30;;;13.70;99.90;;;;;;5050083;28;20430;-77
2021/03/26 09:55:21;;;;;;;46.70;30.13;;;13.60;99.90;;;;;;5051930;28;20462;-78
2021/03/26 09:57:51;;;;;;;53.10;32.17;;;13.50;99.90;;;;;;5046697;28;20937;-81
2021/03/26 10:00:41;;;;;;;49.33;30.30;;;13.40;99.90;;;;;;5041542;28;20482;-79
2021/03/26 10:03:16;;;;;;;46.63;29.40;;;13.50;99.90;;;;;;5028098;28;20953;-80
2021/03/26 10:05:51;;;;;;;44.33;29.03;;;13.60;99.90;;;;;;5042019;28;20802;-80
2021/03/26 10:11:07;;;;;;;52.13;30.70;;;13.70;99.90;;;;;;5040429;28;20457;-80
2021/03/26 10:13:41;;;;;;;54.53;29.20;;;13.80;99.90;;;;;;5042406;28;20454;-80
2021/03/26 10:16:10;;;;;;;44.80;29.17;;;13.80;99.90;;;;;;5042412;28;20977;-79
2021/03/26 10:18:41;;;;;;;45.93;28.90;;;14.20;99.90;;;;;;5042905;28;20476;-81
2021/03/26 10:21:12;;;;;;;44.40;28.90;;;14.30;99.90;;;;;;5042024;28;20501;-80
2021/03/26 10:24:05;;;;;;;49.43;30.80;;;14.70;99.90;;;;;;5041691;28;20864;-80
2021/03/26 10:26:38;;;;;;;46.77;29.77;;;14.90;99.90;;;;;;5034679;28;20490;-81
2021/03/26 10:29:21;;;;;;;53.10;31.07;;;15.00;99.90;;;;;;5042799;28;20482;-80
2021/03/26 10:31:49;;;;;;;44.37;28.20;;;15.00;99.90;;;;;;5044435;28;20777;-81
2021/03/26 10:34:18;;;;;;;51.30;31.80;;;14.90;99.90;;;;;;5045455;28;20481;-81
2021/03/26 10:36:53;;;;;;;42.87;29.80;;;14.80;99.90;;;;;;5041815;28;20842;-80
2021/03/26 10:39:24;;;;;;;46.30;29.73;;;14.70;99.90;;;;;;5041056;28;20488;-81
2021/03/26 10:42:06;;;;;;;46.27;31.07;;;14.80;99.90;;;;;;5040442;28;20435;-81
2021/03/26 10:44:39;;;;;;;46.20;29.27;;;15.00;99.90;;;;;;5040434;28;20511;-81
2021/03/26 10:47:14;;;;;;;45.10;27.67;;;15.30;99.90;;;;;;5040627;28;20449;-81
2021/03/26 10:49:44;;;;;;;52.43;30.57;;;15.20;99.90;;;;;;5039900;28;20984;-79
2021/03/26 10:52:15;;;;;;;47.30;29.57;;;15.30;99.90;;;;;;5040324;28;20466;-81
2021/03/26 10:54:54;;;;;;;56.30;29.80;;;15.10;99.90;;;;;;5040043;28;20497;-81
2021/03/26 10:57:29;;;;;;;44.93;28.30;;;14.90;99.90;;;;;;5039452;28;20434;-80
2021/03/26 11:00:00;;;;;;;48.10;29.90;;;15.30;99.90;;;;;;5039156;28;20466;-82
2021/03/26 11:02:42;;;;;;;47.73;27.30;;;15.40;99.90;;;;;;5039579;28;20431;-79
2021/03/26 11:05:27;;;;;;;46.37;29.50;;;15.50;99.90;;;;;;5038698;28;20600;-82
2021/03/26 11:08:18;;;;;;;47.27;29.80;;;15.50;99.90;;;;;;5037862;28;20466;-81
2021/03/26 11:10:53;;;;;;;44.90;27.60;;;15.60;99.90;;;;;;5038115;28;20416;-80
2021/03/26 11:13:26;;;;;;;48.50;28.23;;;15.80;99.90;;;;;;5037885;28;20465;-81
2021/03/26 11:15:58;;;;;;;47.33;29.40;;;16.00;99.90;;;;;;5040977;28;20431;-79
2021/03/26 11:18:29;;;;;;;52.77;29.97;;;16.30;99.90;;;;;;5047161;28;20462;-81
2021/03/26 11:20:59;;;;;;;44.87;28.20;;;16.40;99.90;;;;;;5043790;28;20470;-79
2021/03/26 11:23:28;;;;;;;45.00;27.30;;;16.60;99.90;;;;;;5048237;28;20430;-80
2021/03/26 11:26:15;;;;;;;43.30;28.40;;;16.50;99.90;;;;;;5040134;28;20946;-79
2021/03/26 11:28:46;;;;;;;48.33;30.37;;;16.60;99.90;;;;;;5039363;28;20583;-80
2021/03/26 11:31:23;;;;;;;45.00;28.53;;;16.70;99.90;;;;;;5040086;28;20426;-80
2021/03/26 11:34:12;;;;;;;44.67;27.90;;;16.70;99.90;;;;;;5045344;28;20430;-78
2021/03/26 11:36:53;;;;;;;48.60;29.40;;;17.00;99.90;;;;;;5050081;28;20438;-79
2021/03/26 11:39:26;;;;;;;41.27;26.37;;;16.90;99.90;;;;;;5043712;28;20501;-79
2021/03/26 11:42:04;;;;;;;49.27;30.60;;;17.00;99.90;;;;;;5042245;28;20987;-79
2021/03/26 11:44:33;;;;;;;45.67;27.57;;;17.10;99.90;;;;;;5043216;28;20437;-81
2021/03/26 11:47:05;;;;;;;47.60;28.03;;;17.20;99.90;;;;;;5043273;28;20427;-81
2021/03/26 11:49:36;;;;;;;49.10;29.67;;;17.20;99.90;;;;;;5045577;28;20473;-79
2021/03/26 11:52:06;;;;;;;50.23;29.80;;;17.20;99.90;;;;;;5051160;28;20439;-81
2021/03/26 11:54:41;;;;;;;46.03;28.20;;;17.00;99.90;;;;;;5051868;28;20444;-80
2021/03/26 11:57:13;;;;;;;46.90;30.30;;;17.20;99.90;;;;;;5045429;28;20434;-80
2021/03/26 12:00:05;;;;;;;54.17;31.73;;;17.20;99.90;;;;;;5042907;28;20513;-79
2021/03/26 12:02:43;;;;;;;44.10;29.90;;;17.10;99.90;;;;;;5041512;28;20439;-79
2021/03/26 12:05:19;;;;;;;51.97;32.27;;;17.00;99.90;;;;;;5042201;28;20426;-80
2021/03/26 12:07:51;;;;;;;45.83;27.50;;;16.80;99.90;;;;;;5040642;28;20426;-79
2021/03/26 12:10:26;;;;;;;45.80;30.23;;;17.20;99.90;;;;;;5041064;28;20426;-81
2021/03/26 12:13:03;;;;;;;42.40;28.40;;;17.20;99.90;;;;;;5043455;28;20438;-82
2021/03/26 12:15:34;;;;;;;50.67;29.20;;;17.30;99.90;;;;;;5044378;28;20429;-80
2021/03/26 12:18:05;;;;;;;44.60;28.63;;;17.30;99.90;;;;;;5043865;28;20496;-80
2021/03/26 12:20:35;;;;;;;45.50;28.57;;;17.30;99.90;;;;;;5042936;28;20473;-82
2021/03/26 12:23:17;;;;;;;43.70;29.10;;;17.00;99.90;;;;;;5041458;28;20457;-80
2021/03/26 12:25:49;;;;;;;46.40;30.53;;;16.70;99.90;;;;;;5042585;28;20435;-81
2021/03/26 12:28:33;;;;;;;44.50;28.53;;;16.70;99.90;;;;;;5043550;28;20470;-79
2021/03/26 12:31:09;;;;;;;43.00;28.90;;;16.60;99.90;;;;;;5042296;28;20497;-81
2021/03/26 12:33:41;;;;;;;49.00;31.73;;;16.10;99.90;;;;;;5041233;28;20441;-80
2021/03/26 12:36:12;;;;;;;47.13;30.30;;;16.10;99.90;;;;;;5041391;28;20427;-80
2021/03/26 12:38:44;;;;;;;48.17;31.20;;;16.20;99.90;;;;;;5040847;28;20478;-79
2021/03/26 12:41:17;;;;;;;44.67;28.53;;;16.00;99.90;;;;;;5052250;28;20470;-78
2021/03/26 12:43:51;;;;;;;50.70;33.37;;;16.20;99.90;;;;;;5052907;28;20437;-77
2021/03/26 12:46:27;;;;;;;42.50;29.60;;;16.30;99.90;;;;;;5055248;28;20457;-78
2021/03/26 12:49:00;;;;;;;52.33;30.40;;;16.20;99.90;;;;;;5052721;28;20462;-77
2021/03/26 12:51:31;;;;;;;45.40;29.73;;;16.00;99.90;;;;;;5052755;28;20426;-79
2021/03/26 12:54:01;;;;;;;44.20;28.73;;;16.00;99.90;;;;;;5053948;28;20439;-78
2021/03/26 12:56:33;;;;;;;47.10;29.50;;;15.80;99.90;;;;;;5051351;28;20430;-77
2021/03/26 12:59:13;;;;;;;48.93;30.10;;;15.80;99.90;;;;;;5049494;28;20445;-77
2021/03/26 13:01:44;;;;;;;46.33;30.33;;;15.80;99.90;;;;;;5053019;28;20492;-79
2021/03/26 13:04:19;;;;;;;60.77;32.57;;;15.80;99.90;;;;;;5054280;28;20427;-78
2021/03/26 13:06:49;;;;;;;46.70;29.63;;;15.60;99.90;;;;;;5052345;28;20445;-80
2021/03/26 13:09:38;;;;;;;59.73;31.20;;;15.60;99.90;;;;;;5051745;28;20474;-79
2021/03/26 13:12:11;;;;;;;51.40;31.27;;;15.50;99.90;;;;;;5040361;28;20455;-80
2021/03/26 13:14:47;;;;;;;48.40;32.20;;;15.60;99.90;;;;;;5043034;28;20936;-81
2021/03/26 13:17:21;;;;;;;44.97;29.13;;;15.40;99.90;;;;;;5042169;28;20442;-81
2021/03/26 13:19:49;;;;;;;49.80;31.30;;;15.30;99.90;;;;;;5041625;28;20482;-80
2021/03/26 13:22:32;;;;;;;52.70;31.23;;;15.40;99.90;;;;;;5040812;28;20862;-81